Time;durP1;ratioP1;P1;durP2;ratioP2;P2;SDS_P1;SDS_P2;PMS_P1;PMS_P2;Temp;Humidity;BMP_temperature;BMP_pressure;BME280_temperature;BME280_humidity;BME280_pressure;Samples;Min_cycle;Max_cycle;Signal;HPM_P1;HPM_P2
2023/06/26 00:01:46;;;;;;;6.57;5.83;;;17.40;99.90;;;;;;485313;245;28734;-80
2023/06/26 00:03:47;;;;;;;7.40;6.60;;;17.40;99.90;;;;;;485279;245;29304;-80
2023/06/26 00:05:50;;;;;;;7.37;6.30;;;17.40;99.90;;;;;;485287;245;29610;-80
2023/06/26 00:07:50;;;;;;;6.40;5.80;;;17.40;99.90;;;;;;485208;242;29292;-80
2023/06/26 00:09:52;;;;;;;6.90;6.10;;;17.40;99.90;;;;;;485287;242;29343;-80
2023/06/26 00:11:53;;;;;;;11.03;6.40;;;17.40;99.90;;;;;;485242;245;28968;-80
2023/06/26 00:13:54;;;;;;;6.53;5.90;;;17.40;99.90;;;;;;485282;245;28970;-80
2023/06/26 00:15:55;;;;;;;6.50;5.90;;;17.40;99.90;;;;;;485285;245;28757;-81
2023/06/26 00:17:56;;;;;;;8.20;6.20;;;17.30;99.90;;;;;;485289;245;28822;-79
2023/06/26 00:19:57;;;;;;;6.43;5.73;;;17.20;99.90;;;;;;485297;245;28856;-79
2023/06/26 00:21:59;;;;;;;10.80;6.27;;;17.20;99.90;;;;;;485296;245;28849;-80
2023/06/26 00:24:00;;;;;;;7.27;6.47;;;17.20;99.90;;;;;;485280;245;28828;-80
2023/06/26 00:26:01;;;;;;;6.70;5.80;;;17.30;99.90;;;;;;485301;245;28754;-79
2023/06/26 00:28:02;;;;;;;8.60;6.60;;;17.20;99.90;;;;;;485305;245;29222;-79
2023/06/26 00:30:04;;;;;;;9.50;6.70;;;17.10;99.90;;;;;;485294;245;29235;-80
2023/06/26 00:32:05;;;;;;;7.50;6.53;;;17.20;99.90;;;;;;485293;242;29342;-80
2023/06/26 00:34:06;;;;;;;6.17;5.57;;;17.20;99.90;;;;;;485282;245;28830;-80
2023/06/26 00:36:07;;;;;;;7.93;6.03;;;17.20;99.90;;;;;;485285;245;28737;-81
2023/06/26 00:38:09;;;;;;;6.40;5.80;;;17.10;99.90;;;;;;485295;245;28947;-80
2023/06/26 00:40:10;;;;;;;6.50;5.63;;;17.10;99.90;;;;;;485295;245;28902;-80
2023/06/26 00:42:11;;;;;;;9.33;6.60;;;17.10;99.90;;;;;;485300;245;28837;-80
2023/06/26 00:44:12;;;;;;;8.83;6.07;;;17.10;99.90;;;;;;485280;245;28843;-80
2023/06/26 00:46:14;;;;;;;7.13;6.07;;;17.10;99.90;;;;;;485292;245;28740;-80
2023/06/26 00:48:15;;;;;;;7.23;6.50;;;17.10;99.90;;;;;;485265;245;28762;-78
2023/06/26 00:50:17;;;;;;;6.40;5.80;;;17.00;99.90;;;;;;485280;245;28783;-81
2023/06/26 00:52:17;;;;;;;6.77;5.87;;;17.00;99.90;;;;;;485252;245;29207;-80
2023/06/26 00:54:20;;;;;;;5.77;5.23;;;17.00;99.90;;;;;;485311;245;29270;-80
2023/06/26 00:56:20;;;;;;;7.10;5.93;;;17.00;99.90;;;;;;485256;245;29343;-78
2023/06/26 00:58:21;;;;;;;8.90;6.20;;;17.00;99.90;;;;;;485297;245;29297;-79
2023/06/26 01:00:23;;;;;;;6.37;5.77;;;17.00;99.90;;;;;;485230;245;28769;-79
2023/06/26 01:02:24;;;;;;;7.30;6.20;;;17.00;99.90;;;;;;485274;245;28849;-80
2023/06/26 01:04:27;;;;;;;7.17;6.40;;;17.00;99.90;;;;;;485276;245;28762;-78
2023/06/26 01:06:26;;;;;;;7.20;6.00;;;17.00;99.90;;;;;;485162;245;28755;-80
2023/06/26 01:08:27;;;;;;;7.30;6.20;;;17.00;99.90;;;;;;485305;245;28758;-80
2023/06/26 01:10:29;;;;;;;6.40;5.80;;;17.00;99.90;;;;;;485260;245;28759;-79
2023/06/26 01:12:30;;;;;;;7.00;6.27;;;16.90;99.90;;;;;;485292;245;28754;-80
2023/06/26 01:14:32;;;;;;;6.23;5.60;;;16.80;99.90;;;;;;485272;245;28821;-80
2023/06/26 01:16:33;;;;;;;6.80;6.10;;;16.90;99.90;;;;;;485263;245;28780;-80
2023/06/26 01:18:34;;;;;;;8.60;6.57;;;16.90;99.90;;;;;;485304;245;29210;-78
2023/06/26 01:20:35;;;;;;;6.87;5.60;;;17.00;99.90;;;;;;485291;245;29272;-80
2023/06/26 01:22:44;;;;;;;7.90;6.40;;;17.00;99.90;;;;;;485291;245;29222;-80
2023/06/26 01:24:38;;;;;;;9.20;6.50;;;17.00;99.90;;;;;;484632;245;28841;-80
2023/06/26 01:26:39;;;;;;;8.10;6.43;;;17.00;99.90;;;;;;485297;245;28768;-78
2023/06/26 01:28:40;;;;;;;6.50;5.83;;;17.00;99.90;;;;;;485286;245;28760;-79
2023/06/26 01:30:41;;;;;;;7.70;6.90;;;17.00;99.90;;;;;;485308;245;28837;-78
2023/06/26 01:32:43;;;;;;;10.83;6.10;;;16.90;99.90;;;;;;485298;245;28756;-80
2023/06/26 01:34:44;;;;;;;7.33;6.33;;;16.90;99.90;;;;;;485270;245;28750;-81
2023/06/26 01:36:48;;;;;;;6.80;5.93;;;16.90;99.90;;;;;;485296;245;28761;-78
2023/06/26 01:38:46;;;;;;;6.90;5.93;;;16.90;99.90;;;;;;485205;242;28877;-80
2023/06/26 01:40:48;;;;;;;6.83;6.13;;;16.90;99.90;;;;;;485286;245;28758;-80
2023/06/26 01:42:49;;;;;;;6.77;6.00;;;16.90;99.90;;;;;;485302;245;29200;-80
2023/06/26 01:44:52;;;;;;;6.13;5.53;;;16.90;99.90;;;;;;485281;245;29217;-79
2023/06/26 01:46:51;;;;;;;6.90;6.20;;;16.90;99.90;;;;;;485150;245;29439;-76
2023/06/26 01:48:53;;;;;;;6.50;5.90;;;16.80;99.90;;;;;;485291;245;28842;-78
2023/06/26 01:50:54;;;;;;;6.73;6.03;;;16.80;99.90;;;;;;485296;245;28813;-78
2023/06/26 01:52:55;;;;;;;7.30;5.97;;;16.80;99.90;;;;;;485300;245;28746;-79
2023/06/26 01:54:56;;;;;;;8.60;7.10;;;16.80;99.90;;;;;;485287;245;28819;-80
2023/06/26 01:56:58;;;;;;;8.63;6.53;;;16.90;99.90;;;;;;485292;242;28864;-80
2023/06/26 01:58:59;;;;;;;5.50;5.00;;;16.90;99.90;;;;;;485287;245;28744;-80
2023/06/26 02:01:00;;;;;;;7.87;6.33;;;16.80;99.90;;;;;;485299;245;28744;-81
2023/06/26 02:03:01;;;;;;;6.53;5.70;;;16.80;99.90;;;;;;485292;242;28750;-80
2023/06/26 02:05:03;;;;;;;6.87;6.10;;;16.80;99.90;;;;;;485271;245;28766;-80
2023/06/26 02:07:04;;;;;;;7.80;5.67;;;16.80;99.90;;;;;;485273;245;29243;-80
2023/06/26 02:09:05;;;;;;;5.97;5.37;;;16.80;99.90;;;;;;485286;245;29321;-80
2023/06/26 02:11:06;;;;;;;7.40;6.50;;;16.70;99.90;;;;;;485273;245;29219;-79
2023/06/26 02:13:08;;;;;;;7.37;6.23;;;16.70;99.90;;;;;;485280;245;29449;-79
2023/06/26 02:15:09;;;;;;;7.00;6.30;;;16.70;99.90;;;;;;485251;245;28758;-80
2023/06/26 02:17:10;;;;;;;7.10;6.10;;;16.70;99.90;;;;;;485283;245;28847;-79
2023/06/26 02:19:11;;;;;;;6.33;5.73;;;16.70;99.90;;;;;;485295;245;28822;-80
2023/06/26 02:21:13;;;;;;;7.37;6.43;;;16.70;99.90;;;;;;485276;245;28843;-80
2023/06/26 02:23:14;;;;;;;7.60;6.57;;;16.70;99.90;;;;;;485279;245;28769;-80
2023/06/26 02:25:16;;;;;;;6.20;5.50;;;16.70;99.90;;;;;;485275;245;28758;-80
2023/06/26 02:27:16;;;;;;;6.77;5.90;;;16.70;99.90;;;;;;485233;245;28758;-80
2023/06/26 02:29:18;;;;;;;7.27;6.10;;;16.80;99.90;;;;;;485276;245;28834;-79
2023/06/26 02:31:19;;;;;;;6.60;5.90;;;16.80;99.90;;;;;;485282;245;28754;-79
2023/06/26 02:33:20;;;;;;;7.30;6.20;;;16.80;99.90;;;;;;485307;245;29235;-79
2023/06/26 02:35:21;;;;;;;7.10;6.40;;;16.60;99.90;;;;;;485273;242;29214;-79
2023/06/26 02:37:23;;;;;;;8.60;6.60;;;16.60;99.90;;;;;;485282;245;29373;-79
2023/06/26 02:39:24;;;;;;;6.50;5.50;;;16.60;99.90;;;;;;485298;245;28759;-79
2023/06/26 02:41:25;;;;;;;7.30;6.00;;;16.60;99.90;;;;;;485287;245;28748;-80
2023/06/26 02:43:26;;;;;;;8.20;6.60;;;16.50;99.90;;;;;;485281;245;28814;-81
2023/06/26 02:45:28;;;;;;;6.87;5.97;;;16.60;99.90;;;;;;485273;245;28772;-80
2023/06/26 02:47:29;;;;;;;7.40;6.10;;;16.60;99.90;;;;;;485299;245;28812;-79
2023/06/26 02:49:30;;;;;;;5.80;5.20;;;16.60;99.90;;;;;;485308;245;28751;-78
2023/06/26 02:51:31;;;;;;;6.67;6.07;;;16.60;99.90;;;;;;485322;245;28823;-79
2023/06/26 02:53:33;;;;;;;7.20;6.20;;;16.60;99.90;;;;;;485301;245;28789;-79
2023/06/26 02:55:34;;;;;;;6.47;5.87;;;16.50;99.90;;;;;;485268;245;28762;-80
2023/06/26 02:57:35;;;;;;;8.13;6.80;;;16.50;99.90;;;;;;485296;245;29211;-79
2023/06/26 02:59:36;;;;;;;6.10;5.50;;;16.50;99.90;;;;;;485276;245;29257;-81
2023/06/26 03:01:38;;;;;;;7.07;6.00;;;16.50;99.90;;;;;;485304;245;29293;-77
2023/06/26 03:03:40;;;;;;;6.90;5.70;;;16.50;99.90;;;;;;485281;245;28787;-78
2023/06/26 03:05:40;;;;;;;6.90;5.73;;;16.50;99.90;;;;;;485215;245;28853;-78
2023/06/26 03:07:41;;;;;;;8.10;6.23;;;16.50;99.90;;;;;;485290;245;28745;-79
2023/06/26 03:09:43;;;;;;;7.23;5.70;;;16.50;99.90;;;;;;485293;245;28790;-80
2023/06/26 03:11:44;;;;;;;6.70;6.00;;;16.50;99.90;;;;;;485294;245;28754;-80
2023/06/26 03:13:45;;;;;;;7.57;6.80;;;16.30;99.90;;;;;;485275;245;28834;-78
2023/06/26 03:15:47;;;;;;;7.90;6.20;;;16.30;99.90;;;;;;485274;245;28755;-78
2023/06/26 03:17:48;;;;;;;6.17;5.57;;;16.30;99.90;;;;;;485298;245;28752;-78
2023/06/26 03:19:49;;;;;;;7.13;6.37;;;16.30;99.90;;;;;;485316;245;28855;-77
2023/06/26 03:21:50;;;;;;;6.70;6.03;;;16.40;99.90;;;;;;485281;245;29314;-80
2023/06/26 03:23:51;;;;;;;8.23;6.97;;;16.30;99.90;;;;;;485294;242;29294;-78
2023/06/26 03:25:53;;;;;;;7.40;6.60;;;16.00;99.90;;;;;;485275;245;29276;-77
2023/06/26 03:27:54;;;;;;;9.17;7.77;;;15.70;99.90;;;;;;485241;245;29206;-77
2023/06/26 03:29:55;;;;;;;9.90;6.97;;;15.60;99.90;;;;;;485294;245;28760;-78
2023/06/26 03:31:56;;;;;;;10.20;7.63;;;15.40;99.90;;;;;;485288;245;28755;-79
2023/06/26 03:33:58;;;;;;;8.23;7.20;;;15.40;99.90;;;;;;485278;245;28766;-77
2023/06/26 03:35:59;;;;;;;7.90;6.67;;;15.50;99.90;;;;;;485278;245;28756;-77
2023/06/26 03:38:03;;;;;;;8.57;6.87;;;15.60;99.90;;;;;;485297;245;28752;-78
2023/06/26 03:40:04;;;;;;;7.47;6.10;;;15.80;99.90;;;;;;485248;245;29246;-79
2023/06/26 03:42:06;;;;;;;6.87;6.17;;;16.00;99.90;;;;;;485289;245;29306;-80
2023/06/26 03:44:07;;;;;;;8.00;5.83;;;16.10;99.90;;;;;;485256;245;28734;-80
2023/06/26 03:46:08;;;;;;;7.50;6.30;;;16.20;99.90;;;;;;485272;245;28750;-79
2023/06/26 03:48:09;;;;;;;6.47;5.77;;;16.20;99.90;;;;;;485305;245;28860;-81
2023/06/26 03:50:11;;;;;;;6.40;5.80;;;16.30;99.90;;;;;;485300;245;28872;-80
2023/06/26 03:52:12;;;;;;;7.27;5.80;;;16.40;99.90;;;;;;485319;242;28947;-78
2023/06/26 03:54:13;;;;;;;7.90;6.17;;;16.40;99.90;;;;;;483428;236;28761;-80
2023/06/26 03:56:14;;;;;;;6.97;6.17;;;16.50;99.90;;;;;;482693;246;28739;-79
2023/06/26 03:58:16;;;;;;;6.20;5.60;;;16.50;99.90;;;;;;482686;246;28894;-80
2023/06/26 04:00:17;;;;;;;6.80;6.10;;;16.60;99.90;;;;;;482684;246;28747;-80
2023/06/26 04:02:18;;;;;;;6.07;5.47;;;16.60;99.90;;;;;;482587;246;29262;-80
2023/06/26 04:04:19;;;;;;;7.67;6.60;;;16.60;99.90;;;;;;482683;246;29312;-80
2023/06/26 04:06:21;;;;;;;7.30;5.80;;;16.50;99.90;;;;;;482681;246;29235;-80
2023/06/26 04:08:22;;;;;;;7.80;6.03;;;16.60;99.90;;;;;;482686;246;28767;-80
2023/06/26 04:10:23;;;;;;;6.50;5.70;;;16.60;99.90;;;;;;482674;246;28726;-78
2023/06/26 04:12:24;;;;;;;6.80;6.07;;;16.60;99.90;;;;;;482673;246;28756;-79
2023/06/26 04:14:26;;;;;;;7.90;6.40;;;16.60;99.90;;;;;;481163;235;28721;-80
2023/06/26 04:16:27;;;;;;;6.47;5.73;;;16.60;99.90;;;;;;477402;249;28740;-80
2023/06/26 04:18:28;;;;;;;5.57;4.90;;;16.70;99.90;;;;;;477406;249;28750;-80
2023/06/26 04:20:29;;;;;;;8.13;6.13;;;16.80;99.90;;;;;;477245;249;28710;-80
2023/06/26 04:22:31;;;;;;;6.67;6.07;;;16.90;99.90;;;;;;477396;249;28742;-80
2023/06/26 04:24:32;;;;;;;6.77;5.30;;;16.90;99.90;;;;;;477376;249;28820;-80
2023/06/26 04:26:33;;;;;;;6.80;6.10;;;17.10;99.90;;;;;;477373;249;29184;-80
2023/06/26 04:28:34;;;;;;;6.60;5.43;;;17.20;99.90;;;;;;477393;249;29262;-80
2023/06/26 04:30:36;;;;;;;6.00;5.40;;;17.30;99.90;;;;;;477384;249;29198;-79
2023/06/26 04:32:37;;;;;;;6.50;5.80;;;17.40;99.90;;;;;;477379;249;28844;-78
2023/06/26 04:34:41;;;;;;;6.57;5.40;;;17.40;99.90;;;;;;477371;246;28826;-78
2023/06/26 04:36:39;;;;;;;6.83;6.13;;;17.50;99.90;;;;;;477253;249;28875;-78
2023/06/26 04:38:41;;;;;;;6.03;5.43;;;17.50;99.90;;;;;;477397;249;28718;-79
2023/06/26 04:40:42;;;;;;;5.90;5.30;;;17.40;99.90;;;;;;477388;249;28808;-80
2023/06/26 04:42:43;;;;;;;6.80;6.10;;;17.30;99.90;;;;;;477367;249;28719;-80
2023/06/26 04:44:44;;;;;;;9.80;5.60;;;17.40;99.90;;;;;;477383;249;28715;-80
2023/06/26 04:46:46;;;;;;;6.37;5.77;;;17.50;99.90;;;;;;477393;246;28838;-80
2023/06/26 04:48:47;;;;;;;6.83;5.97;;;17.70;99.90;;;;;;477331;249;28827;-81
2023/06/26 04:50:53;;;;;;;7.53;6.57;;;17.80;99.90;;;;;;477387;249;29229;-79
2023/06/26 04:52:49;;;;;;;6.77;5.40;;;17.90;99.90;;;;;;477209;249;29200;-80
2023/06/26 04:54:51;;;;;;;6.30;5.40;;;17.90;99.90;;;;;;477285;249;29261;-80
2023/06/26 04:56:52;;;;;;;6.23;5.63;;;18.00;99.90;;;;;;477369;249;29185;-80
2023/06/26 04:58:53;;;;;;;7.03;5.50;;;18.10;99.90;;;;;;477378;249;28706;-81
2023/06/26 05:00:54;;;;;;;6.20;5.60;;;18.10;99.90;;;;;;477391;245;28803;-80
2023/06/26 05:03:00;;;;;;;5.30;4.80;;;18.20;99.90;;;;;;477385;249;28803;-80
2023/06/26 05:04:57;;;;;;;7.20;5.80;;;18.30;99.90;;;;;;477180;249;28731;-80
2023/06/26 05:06:58;;;;;;;6.87;5.73;;;18.40;99.90;;;;;;477391;249;28818;-78
2023/06/26 05:08:59;;;;;;;6.43;5.73;;;18.40;99.90;;;;;;477380;249;28698;-78
2023/06/26 05:11:01;;;;;;;6.93;5.80;;;18.60;99.90;;;;;;477381;249;28809;-78
2023/06/26 05:13:02;;;;;;;8.97;5.90;;;18.60;99.90;;;;;;477385;249;28716;-78
2023/06/26 05:15:03;;;;;;;7.30;6.50;;;18.70;99.90;;;;;;477385;249;28715;-80
2023/06/26 05:17:04;;;;;;;6.40;5.80;;;18.80;99.90;;;;;;477395;249;29185;-80
2023/06/26 05:19:06;;;;;;;5.73;4.77;;;18.80;99.90;;;;;;477378;249;29164;-79
2023/06/26 05:21:07;;;;;;;7.47;5.80;;;18.90;99.90;;;;;;477384;249;29392;-81
2023/06/26 05:23:08;;;;;;;5.90;5.30;;;19.10;99.90;;;;;;477301;249;28720;-80
2023/06/26 05:25:10;;;;;;;7.27;5.70;;;19.20;99.90;;;;;;477376;249;28687;-80
2023/06/26 05:27:12;;;;;;;5.63;5.03;;;19.30;99.90;;;;;;477372;249;28823;-81
2023/06/26 05:29:12;;;;;;;6.40;5.47;;;19.40;99.90;;;;;;477316;249;28705;-81
2023/06/26 05:31:13;;;;;;;6.90;5.87;;;19.50;99.90;;;;;;477375;249;28698;-81
2023/06/26 05:33:14;;;;;;;6.83;5.47;;;19.60;99.90;;;;;;477391;249;28795;-81
2023/06/26 05:35:16;;;;;;;6.07;5.47;;;19.70;99.90;;;;;;477375;249;28728;-81
2023/06/26 05:37:17;;;;;;;7.97;5.93;;;19.80;99.90;;;;;;477377;249;28802;-81
2023/06/26 05:39:18;;;;;;;6.40;5.73;;;19.90;99.90;;;;;;477384;249;28791;-81
2023/06/26 05:41:19;;;;;;;6.03;5.43;;;19.90;99.90;;;;;;477370;249;29201;-78
2023/06/26 05:43:21;;;;;;;6.30;5.70;;;19.90;99.90;;;;;;477385;249;29297;-81
2023/06/26 05:45:22;;;;;;;5.63;5.13;;;20.00;99.90;;;;;;477384;249;29171;-81
2023/06/26 05:47:23;;;;;;;22.87;6.13;;;20.10;99.90;;;;;;477368;249;29300;-80
2023/06/26 05:49:24;;;;;;;6.70;5.70;;;20.20;99.90;;;;;;477390;249;28704;-80
2023/06/26 05:51:26;;;;;;;6.23;5.63;;;20.20;99.90;;;;;;477395;249;28733;-80
2023/06/26 05:53:27;;;;;;;6.23;5.30;;;20.20;99.90;;;;;;477377;249;28806;-78
2023/06/26 05:55:28;;;;;;;6.20;5.60;;;20.20;99.90;;;;;;477366;249;28692;-81
2023/06/26 05:57:29;;;;;;;5.87;5.27;;;20.30;99.90;;;;;;477397;249;28747;-81
2023/06/26 05:59:31;;;;;;;6.50;5.70;;;20.30;99.90;;;;;;477366;249;28739;-81
2023/06/26 06:01:33;;;;;;;6.20;5.43;;;20.30;99.90;;;;;;477377;249;28821;-79
2023/06/26 06:03:33;;;;;;;7.30;5.77;;;20.30;99.90;;;;;;477340;249;28775;-80
2023/06/26 06:05:34;;;;;;;6.80;5.90;;;20.40;99.90;;;;;;477385;249;29248;-78
2023/06/26 06:07:36;;;;;;;5.90;5.30;;;20.40;99.90;;;;;;477362;249;29194;-78
2023/06/26 06:09:37;;;;;;;6.13;5.47;;;20.50;99.90;;;;;;477378;249;29209;-79
2023/06/26 06:11:38;;;;;;;5.70;5.10;;;20.50;99.90;;;;;;477374;249;29251;-80
2023/06/26 06:13:39;;;;;;;6.57;5.93;;;20.50;99.90;;;;;;477391;249;28793;-81
2023/06/26 06:15:41;;;;;;;6.87;6.17;;;20.60;99.90;;;;;;477352;249;28719;-80
2023/06/26 06:17:42;;;;;;;6.30;5.67;;;20.60;99.90;;;;;;477374;249;28818;-80
2023/06/26 06:19:43;;;;;;;6.60;5.90;;;20.70;99.90;;;;;;477377;249;28718;-80
2023/06/26 06:21:44;;;;;;;6.33;5.73;;;20.80;99.90;;;;;;477390;249;28701;-80
2023/06/26 06:23:46;;;;;;;7.87;5.77;;;20.90;99.90;;;;;;477374;249;28708;-81
2023/06/26 06:25:47;;;;;;;6.20;5.60;;;21.00;99.90;;;;;;477382;249;28791;-81
2023/06/26 06:27:48;;;;;;;6.30;5.70;;;21.00;99.90;;;;;;477366;249;28732;-79
2023/06/26 06:29:49;;;;;;;6.13;5.53;;;21.00;99.90;;;;;;477371;245;29187;-81
2023/06/26 06:31:51;;;;;;;8.47;5.70;;;21.10;99.90;;;;;;477366;249;29186;-79
2023/06/26 06:33:52;;;;;;;6.73;5.60;;;21.20;99.90;;;;;;477385;249;29234;-80
2023/06/26 06:35:53;;;;;;;9.67;5.33;;;21.20;99.90;;;;;;477373;249;29191;-80
2023/06/26 06:37:54;;;;;;;6.23;5.40;;;21.30;99.90;;;;;;477363;249;28773;-80
2023/06/26 06:39:56;;;;;;;7.90;6.43;;;21.30;99.90;;;;;;477370;249;28716;-81
2023/06/26 06:41:57;;;;;;;7.40;5.47;;;21.40;99.90;;;;;;477370;245;28726;-80
2023/06/26 06:43:58;;;;;;;6.30;5.70;;;21.50;99.90;;;;;;477950;239;28949;-80
2023/06/26 06:45:59;;;;;;;6.37;5.77;;;21.50;99.90;;;;;;476699;249;28801;-81
2023/06/26 06:48:01;;;;;;;6.20;5.60;;;21.50;99.90;;;;;;476686;249;28872;-79
2023/06/26 06:50:07;;;;;;;6.43;5.80;;;21.60;99.90;;;;;;476695;249;28838;-79
2023/06/26 06:52:03;;;;;;;7.40;5.90;;;21.70;99.90;;;;;;476343;249;28885;-81
2023/06/26 06:54:05;;;;;;;6.17;5.57;;;21.80;99.90;;;;;;476694;249;28820;-80
2023/06/26 06:56:06;;;;;;;13.93;5.93;;;21.80;99.90;;;;;;476706;249;29226;-80
2023/06/26 06:58:07;;;;;;;7.10;5.27;;;21.90;99.90;;;;;;476701;249;29351;-80
2023/06/26 07:00:11;;;;;;;6.20;5.60;;;21.90;99.90;;;;;;476693;249;29264;-80
2023/06/26 07:02:12;;;;;;;5.77;5.23;;;21.90;99.90;;;;;;476704;249;28845;-81
2023/06/26 07:04:14;;;;;;;6.50;5.90;;;21.90;99.90;;;;;;476696;249;28869;-81
2023/06/26 07:06:15;;;;;;;8.13;6.57;;;22.00;99.90;;;;;;476698;249;28783;-80
2023/06/26 07:08:16;;;;;;;7.37;6.57;;;22.20;99.90;;;;;;476695;249;28866;-79
2023/06/26 07:10:17;;;;;;;6.80;6.10;;;22.10;99.90;;;;;;476698;249;28897;-80
2023/06/26 07:12:19;;;;;;;6.63;5.93;;;22.10;99.90;;;;;;476699;249;29259;-80
2023/06/26 07:14:20;;;;;;;7.63;6.90;;;22.10;99.90;;;;;;476692;245;29314;-80
2023/06/26 07:16:21;;;;;;;8.67;6.80;;;22.10;99.90;;;;;;476702;249;29624;-80
2023/06/26 07:18:22;;;;;;;7.30;6.60;;;22.10;99.90;;;;;;476709;249;29373;-78
2023/06/26 07:20:24;;;;;;;7.50;6.70;;;22.20;99.90;;;;;;476703;249;28880;-80
2023/06/26 07:22:25;;;;;;;7.13;6.43;;;22.30;99.90;;;;;;476689;249;28857;-81
2023/06/26 07:24:26;;;;;;;8.00;6.77;;;22.20;99.90;;;;;;476721;249;28870;-79
2023/06/26 07:26:27;;;;;;;8.10;7.07;;;22.20;99.90;;;;;;476726;249;28794;-79
2023/06/26 07:28:29;;;;;;;9.17;5.83;;;22.30;99.90;;;;;;476720;249;28808;-80
2023/06/26 07:30:30;;;;;;;9.33;7.30;;;22.40;99.90;;;;;;476728;249;28891;-80
2023/06/26 07:32:31;;;;;;;7.80;6.20;;;22.60;99.90;;;;;;476724;249;28796;-79
2023/06/26 07:34:33;;;;;;;7.07;6.37;;;22.80;99.90;;;;;;476720;249;28858;-81
2023/06/26 07:36:34;;;;;;;7.93;7.00;;;22.90;99.90;;;;;;476719;249;28902;-80
2023/06/26 07:38:35;;;;;;;10.90;6.83;;;22.90;99.90;;;;;;476717;249;29335;-78
2023/06/26 07:40:36;;;;;;;11.73;7.50;;;23.00;99.90;;;;;;476722;249;29272;-79
2023/06/26 07:42:38;;;;;;;7.40;6.60;;;23.00;99.90;;;;;;476728;249;29252;-79
2023/06/26 07:44:39;;;;;;;13.50;6.50;;;23.00;99.90;;;;;;476169;249;28813;-80
2023/06/26 07:46:40;;;;;;;8.83;6.20;;;23.10;99.90;;;;;;472770;251;28990;-79
2023/06/26 07:48:41;;;;;;;7.17;6.47;;;23.20;99.90;;;;;;472772;251;28959;-80
2023/06/26 07:50:42;;;;;;;7.67;6.97;;;23.20;99.90;;;;;;472777;251;28883;-79
2023/06/26 07:52:44;;;;;;;7.30;6.03;;;23.10;99.90;;;;;;472776;251;28900;-80
2023/06/26 07:54:45;;;;;;;6.97;6.27;;;23.00;99.90;;;;;;472788;251;28885;-80
2023/06/26 07:56:46;;;;;;;7.10;6.30;;;22.90;99.90;;;;;;472784;251;28881;-80
2023/06/26 07:58:47;;;;;;;13.40;6.07;;;22.70;99.90;;;;;;472791;251;28969;-80
2023/06/26 08:00:49;;;;;;;7.20;6.40;;;22.70;99.90;;;;;;472783;251;29406;-78
2023/06/26 08:02:50;;;;;;;8.40;6.30;;;22.60;99.90;;;;;;472783;251;29418;-78
2023/06/26 08:04:51;;;;;;;10.40;7.47;;;22.60;99.90;;;;;;469297;245;29491;-79
2023/06/26 08:06:52;;;;;;;8.20;6.50;;;22.60;99.90;;;;;;466552;255;28914;-79
2023/06/26 08:08:54;;;;;;;8.80;6.83;;;22.60;99.90;;;;;;468840;254;28921;-79
2023/06/26 08:10:55;;;;;;;7.87;6.93;;;22.60;99.90;;;;;;466527;255;28928;-81
2023/06/26 08:12:56;;;;;;;11.53;6.87;;;22.70;99.90;;;;;;468863;254;28839;-79
2023/06/26 08:14:57;;;;;;;7.80;6.80;;;22.80;99.90;;;;;;466549;255;28854;-79
2023/06/26 08:16:59;;;;;;;9.57;7.33;;;22.90;99.90;;;;;;468853;254;28928;-79
2023/06/26 08:19:01;;;;;;;7.37;6.67;;;23.10;99.90;;;;;;466504;255;28944;-79
2023/06/26 08:21:01;;;;;;;7.47;6.70;;;23.30;99.90;;;;;;468839;254;28831;-80
2023/06/26 08:23:03;;;;;;;8.07;6.60;;;23.50;99.90;;;;;;466515;255;29371;-80
2023/06/26 08:25:05;;;;;;;10.73;6.50;;;23.70;99.90;;;;;;468843;254;29304;-80
2023/06/26 08:27:07;;;;;;;9.47;6.70;;;23.90;99.90;;;;;;466466;255;29386;-79
2023/06/26 08:29:09;;;;;;;8.07;6.80;;;23.90;99.90;;;;;;468740;249;29320;-80
2023/06/26 08:31:10;;;;;;;11.03;7.20;;;24.00;99.90;;;;;;466521;255;28874;-79
2023/06/26 08:33:12;;;;;;;7.77;7.00;;;24.00;99.90;;;;;;468834;254;28862;-80
2023/06/26 08:35:13;;;;;;;8.53;6.70;;;24.00;99.90;;;;;;466517;255;29305;-77
2023/06/26 08:37:14;;;;;;;9.00;7.37;;;23.90;99.90;;;;;;468849;254;29399;-78
2023/06/26 08:39:15;;;;;;;7.70;6.90;;;23.70;99.90;;;;;;466525;255;29310;-78
2023/06/26 08:41:16;;;;;;;7.97;6.90;;;23.60;99.90;;;;;;468851;254;29419;-78
2023/06/26 08:43:19;;;;;;;7.33;6.33;;;23.70;99.90;;;;;;466532;255;28845;-77
2023/06/26 08:45:19;;;;;;;8.57;7.33;;;23.80;99.90;;;;;;468812;249;28836;-78
2023/06/26 08:47:20;;;;;;;9.27;7.00;;;24.00;99.90;;;;;;466520;255;29352;-79
2023/06/26 08:49:22;;;;;;;10.03;7.47;;;24.30;99.90;;;;;;468842;254;28849;-79
2023/06/26 08:51:23;;;;;;;8.60;7.43;;;24.60;99.90;;;;;;466520;255;28931;-78
2023/06/26 08:53:24;;;;;;;11.07;7.03;;;24.60;99.90;;;;;;468842;254;29031;-79
2023/06/26 08:55:25;;;;;;;9.60;7.10;;;24.70;99.90;;;;;;466524;255;28879;-79
2023/06/26 08:57:27;;;;;;;9.37;7.27;;;24.60;99.90;;;;;;468843;254;28848;-79
2023/06/26 08:59:28;;;;;;;7.20;6.50;;;24.60;99.90;;;;;;466525;255;29402;-80
2023/06/26 09:01:29;;;;;;;7.80;6.63;;;24.50;99.90;;;;;;468744;254;29487;-80
2023/06/26 09:03:30;;;;;;;8.03;6.80;;;24.40;99.90;;;;;;466534;255;29312;-80
2023/06/26 09:05:32;;;;;;;8.70;7.07;;;24.40;99.90;;;;;;468839;249;28908;-80
2023/06/26 09:07:33;;;;;;;9.20;6.77;;;24.20;99.90;;;;;;466523;255;28834;-79
2023/06/26 09:09:34;;;;;;;11.63;6.97;;;24.30;99.90;;;;;;468807;254;28905;-80
2023/06/26 09:11:35;;;;;;;8.90;6.70;;;24.30;99.90;;;;;;466499;255;28945;-78
2023/06/26 09:13:37;;;;;;;7.07;6.37;;;24.40;99.90;;;;;;468812;254;28824;-80
2023/06/26 09:15:39;;;;;;;7.87;6.63;;;24.40;99.90;;;;;;466479;255;28921;-80
2023/06/26 09:17:42;;;;;;;8.13;6.70;;;24.40;99.90;;;;;;468791;254;28951;-80
2023/06/26 09:19:40;;;;;;;7.03;6.33;;;24.00;99.90;;;;;;466007;255;28853;-80
2023/06/26 09:21:42;;;;;;;7.10;6.37;;;23.80;99.90;;;;;;468831;249;28956;-79
2023/06/26 09:23:43;;;;;;;7.00;6.33;;;23.80;99.90;;;;;;466506;255;29321;-79
2023/06/26 09:25:45;;;;;;;7.53;6.33;;;23.70;99.90;;;;;;468836;254;29598;-80
2023/06/26 09:27:45;;;;;;;9.57;7.43;;;23.90;99.90;;;;;;466502;255;29361;-81
2023/06/26 09:29:47;;;;;;;10.13;6.63;;;24.10;99.90;;;;;;468843;254;28892;-80
2023/06/26 09:31:48;;;;;;;8.50;6.50;;;24.00;99.90;;;;;;466512;255;28904;-79
2023/06/26 09:33:50;;;;;;;7.68;6.87;;;24.00;99.90;;;;;;468700;254;24668;-78
2023/06/26 09:35:50;;;;;;;7.57;6.57;;;23.90;99.90;;;;;;466528;255;27599;-80
2023/06/26 09:37:52;;;;;;;12.50;7.17;;;23.90;99.90;;;;;;468840;254;28821;-79
2023/06/26 09:39:53;;;;;;;7.40;6.53;;;24.00;99.90;;;;;;466509;255;28831;-80
2023/06/26 09:41:56;;;;;;;10.67;6.70;;;24.10;99.90;;;;;;468833;252;29050;-79
2023/06/26 09:43:55;;;;;;;6.73;6.03;;;24.20;99.90;;;;;;466395;255;28834;-79
2023/06/26 09:45:57;;;;;;;7.43;6.60;;;24.10;99.90;;;;;;468843;254;29370;-80
2023/06/26 09:47:58;;;;;;;9.90;6.23;;;24.10;99.90;;;;;;466516;255;29305;-79
2023/06/26 09:49:59;;;;;;;6.83;6.10;;;24.30;99.90;;;;;;468834;254;29295;-79
2023/06/26 09:52:00;;;;;;;10.40;6.53;;;24.50;99.90;;;;;;466513;255;28831;-79
2023/06/26 09:54:02;;;;;;;11.03;6.50;;;24.50;99.90;;;;;;468820;254;28934;-80
2023/06/26 09:56:03;;;;;;;6.40;5.80;;;24.40;99.90;;;;;;466514;255;28919;-78
2023/06/26 09:58:04;;;;;;;8.07;6.40;;;24.60;99.90;;;;;;468832;254;28829;-81
2023/06/26 10:00:07;;;;;;;13.63;6.30;;;25.00;99.90;;;;;;466515;255;28838;-80
2023/06/26 10:02:07;;;;;;;6.83;6.13;;;25.10;99.90;;;;;;468709;254;28909;-81
2023/06/26 10:04:08;;;;;;;6.27;5.67;;;25.00;99.90;;;;;;466520;254;28862;-79
2023/06/26 10:06:09;;;;;;;7.10;5.40;;;25.00;99.90;;;;;;468822;254;28939;-80
2023/06/26 10:08:10;;;;;;;8.23;5.20;;;25.10;99.90;;;;;;466524;255;29306;-79
2023/06/26 10:10:12;;;;;;;8.17;6.03;;;24.90;99.90;;;;;;468833;254;29294;-79
2023/06/26 10:12:13;;;;;;;6.60;5.90;;;24.80;99.90;;;;;;466526;255;29282;-80
2023/06/26 10:14:14;;;;;;;9.07;5.90;;;24.70;99.90;;;;;;468845;254;28889;-78
2023/06/26 10:16:15;;;;;;;5.73;5.20;;;24.80;99.90;;;;;;466509;255;28813;-80
2023/06/26 10:18:17;;;;;;;5.23;4.70;;;24.80;99.90;;;;;;468845;254;28844;-79
2023/06/26 10:20:18;;;;;;;5.47;4.97;;;24.70;99.90;;;;;;466512;255;28930;-80
2023/06/26 10:22:19;;;;;;;6.03;4.77;;;24.70;99.90;;;;;;468835;254;29017;-80
2023/06/26 10:24:20;;;;;;;8.13;6.07;;;24.80;99.90;;;;;;466509;255;28889;-79
2023/06/26 10:26:22;;;;;;;8.20;5.63;;;24.70;99.90;;;;;;468825;254;28919;-78
2023/06/26 10:28:23;;;;;;;8.63;5.17;;;24.60;99.90;;;;;;466497;255;28867;-79
2023/06/26 10:30:24;;;;;;;5.93;5.00;;;24.70;99.90;;;;;;468837;254;28958;-79